Winthrop, IN

1:17 PM EST on December 03, 2016 (GMT -0500)
Warren County, IN | | Change Station

Elev 615 ft 40.35 °N, 87.21 °W | Updated 2 minutes ago

Overcast
Overcast
36.0 °F
Feels Like 36 °F
N
1.0
Wind Variable Wind from SSW
Gusts 11.0 mph

Today
High -- | Low -- °F
--% Chance of Precip.
Yesterday
High -- | Low -- °F
Precip. -- in
Pressure 30.37 in
Visibility 10.0 miles
Clouds Overcast 2400 ft
Windchill 36 °F
Dew Point 30 °F
Humidity 78%
Rainfall 0.00 in
Snow Depth Not available.
7:54 AM 5:22 PM
Waxing Crescent, 16% visible
METAR KLAF 031754Z 28004KT 10SM OVC024 02/M03 A3036 RMK AO2 SLP284 T00221028 10022 21006 53005
Pressure 30.37 in
Visibility 10.0 miles
Clouds Overcast 2400 ft
Windchill 36 °F
Dew Point 30 °F
Humidity 78%
Rainfall 0.00 in
Snow Depth Not available.
7:54 AM 5:22 PM
Waxing Crescent, 16% visible
METAR KLAF 031754Z 28004KT 10SM OVC024 02/M03 A3036 RMK AO2 SLP284 T00221028 10022 21006 53005

10-Day Weather Forecast

Almanac

Astronomy

Dec. 03, 2016 Rise Set
Actual Time
Civil Twilight
Nautical Twilight
Astronomical Twilight
Moon
Length of Visible Light
Length of Day
Tomorrow will be .
, % of the Moon is Illuminated

Today's Extremes

State Highs State Lows

Community

WunderPhotos

Upload Photos

1,955,457 photos uploaded!

WunderBlog® & News

Nearby

Air Quality

  Air Quality AQ Index Pollutant
Not available.

Snow Depth

Station Depth Elevation

Earthquake Activity

City Distance Mag. Time & Date
Minimum magnitude displayed is 2.5.

Coastal Water Temperatures

Place Temperature

Stations

Nearby Weather Stations

Station Location Temp. Windchill Dew Point Humidity Wind Precip. Elev Updated Type
                   

Watches & Warnings

There are currently no watches in effect.